HAZ3224 ZGDY-ZGGG
Flight info
| Callsign | HAZ3224 |
|---|---|
| Flight time | 1h 15m |
| Altitude | 31100 |
| Route | DYG W138 LLC R343 NUPTI W45 IKAVO IKAVO8 |
| Aircraft | A320/M-SDE3FGHIRWY/LB1 |
Departure
| Time | 2026-04-26 02:04 |
|---|---|
| Airport | Zhangjiajie Hehua International Airport (ZGDY) |
Arrival
| Time | 2026-04-26 03:19 |
|---|---|
| Airport | Guangzhou Baiyun International Airport (ZGGG) |
| Time | Latitude | Longitude | Altitude | Speed | Heading |
|---|---|---|---|---|---|
| 2026-04-26 01:35 | 29.10520 | 110.44390 | 694 ft | 0 kts | 345° |
| 2026-04-26 01:56 | 29.10536 | 110.44384 | 694 ft | 6 kts | 342° |
| 2026-04-26 01:56 | 29.10547 | 110.44334 | 694 ft | 9 kts | 241° |
| 2026-04-26 01:57 | 29.10491 | 110.44276 | 687 ft | 13 kts | 188° |
| 2026-04-26 01:57 | 29.10468 | 110.44366 | 692 ft | 16 kts | 86° |
| 2026-04-26 01:57 | 29.10495 | 110.44519 | 687 ft | 23 kts | 76° |
| 2026-04-26 01:57 | 29.10532 | 110.44694 | 681 ft | 25 kts | 75° |
| 2026-04-26 01:58 | 29.10584 | 110.44889 | 682 ft | 25 kts | 75° |
| 2026-04-26 01:58 | 29.10628 | 110.45084 | 679 ft | 25 kts | 76° |
| 2026-04-26 01:58 | 29.10670 | 110.45270 | 676 ft | 22 kts | 76° |
| 2026-04-26 01:58 | 29.10709 | 110.45447 | 671 ft | 19 kts | 76° |
| 2026-04-26 01:59 | 29.10726 | 110.45521 | 671 ft | 14 kts | 76° |
| 2026-04-26 01:59 | 29.10663 | 110.45622 | 668 ft | 14 kts | 162° |
| 2026-04-26 01:59 | 29.10592 | 110.45631 | 670 ft | 8 kts | 208° |
| 2026-04-26 01:59 | 29.10569 | 110.45583 | 671 ft | 6 kts | 253° |
| 2026-04-26 02:00 | 29.10560 | 110.45546 | 671 ft | 4 kts | 256° |
| 2026-04-26 02:00 | 29.10556 | 110.45528 | 670 ft | 4 kts | 256° |
| 2026-04-26 02:00 | 29.10509 | 110.45315 | 675 ft | 65 kts | 255° |
| 2026-04-26 02:00 | 29.10340 | 110.44560 | 684 ft | 128 kts | 256° |
| 2026-04-26 02:01 | 29.10077 | 110.43388 | 818 ft | 166 kts | 256° |
| 2026-04-26 02:01 | 29.09801 | 110.42122 | 1585 ft | 164 kts | 255° |
| 2026-04-26 02:01 | 29.09534 | 110.40860 | 2341 ft | 163 kts | 257° |
| 2026-04-26 02:01 | 29.09284 | 110.39610 | 3006 ft | 164 kts | 255° |
| 2026-04-26 02:02 | 29.08985 | 110.38265 | 3426 ft | 185 kts | 253° |
| 2026-04-26 02:02 | 29.08633 | 110.36754 | 3771 ft | 207 kts | 252° |
| 2026-04-26 02:02 | 29.08239 | 110.35063 | 4195 ft | 232 kts | 253° |
| 2026-04-26 02:02 | 29.07822 | 110.33256 | 5032 ft | 237 kts | 252° |
| 2026-04-26 02:03 | 29.07403 | 110.31417 | 5955 ft | 241 kts | 253° |
| 2026-04-26 02:03 | 29.06980 | 110.29548 | 6786 ft | 246 kts | 254° |
| 2026-04-26 02:03 | 29.06548 | 110.27640 | 7629 ft | 249 kts | 253° |
| 2026-04-26 02:03 | 29.06332 | 110.25666 | 8496 ft | 256 kts | 271° |
| 2026-04-26 02:04 | 29.06783 | 110.23679 | 9345 ft | 265 kts | 294° |
| 2026-04-26 02:04 | 29.07919 | 110.21987 | 10157 ft | 275 kts | 316° |
| 2026-04-26 02:04 | 29.09604 | 110.20906 | 10915 ft | 284 kts | 341° |
| 2026-04-26 02:04 | 29.11592 | 110.20699 | 11695 ft | 292 kts | 6° |
| 2026-04-26 02:05 | 29.13513 | 110.21474 | 12464 ft | 298 kts | 32° |
| 2026-04-26 02:05 | 29.14983 | 110.23142 | 13255 ft | 302 kts | 58° |
| 2026-04-26 02:05 | 29.16045 | 110.25226 | 14010 ft | 304 kts | 60° |
| 2026-04-26 02:05 | 29.16908 | 110.27442 | 14682 ft | 307 kts | 75° |
| 2026-04-26 02:06 | 29.17220 | 110.29862 | 15334 ft | 310 kts | 90° |
| 2026-04-26 02:06 | 29.17209 | 110.32347 | 15971 ft | 314 kts | 91° |
| 2026-04-26 02:06 | 29.17201 | 110.34865 | 16618 ft | 318 kts | 90° |
| 2026-04-26 02:06 | 29.17058 | 110.37399 | 17240 ft | 322 kts | 102° |
| 2026-04-26 02:07 | 29.16379 | 110.39850 | 17845 ft | 326 kts | 117° |
| 2026-04-26 02:07 | 29.15136 | 110.42094 | 18013 ft | 344 kts | 134° |
| 2026-04-26 02:07 | 29.13438 | 110.44120 | 18149 ft | 362 kts | 137° |
| 2026-04-26 02:07 | 29.11630 | 110.46236 | 18280 ft | 381 kts | 136° |
| 2026-04-26 02:08 | 29.09744 | 110.48458 | 18393 ft | 399 kts | 136° |
| 2026-04-26 02:08 | 29.07774 | 110.50795 | 18509 ft | 416 kts | 136° |
| 2026-04-26 02:08 | 29.05739 | 110.53218 | 18635 ft | 430 kts | 136° |
| 2026-04-26 02:08 | 29.03652 | 110.55710 | 18961 ft | 437 kts | 136° |
| 2026-04-26 02:09 | 29.01543 | 110.58233 | 19396 ft | 441 kts | 136° |
| 2026-04-26 02:09 | 28.99416 | 110.60773 | 19858 ft | 444 kts | 136° |
| 2026-04-26 02:09 | 28.97268 | 110.63326 | 20303 ft | 447 kts | 136° |
| 2026-04-26 02:09 | 28.95233 | 110.66038 | 20751 ft | 452 kts | 128° |
| 2026-04-26 02:10 | 28.93491 | 110.69041 | 21205 ft | 456 kts | 124° |
| 2026-04-26 02:10 | 28.91762 | 110.72093 | 21654 ft | 459 kts | 124° |
| 2026-04-26 02:10 | 28.90021 | 110.75157 | 22103 ft | 462 kts | 124° |
| 2026-04-26 02:10 | 28.88265 | 110.78237 | 22529 ft | 465 kts | 124° |
| 2026-04-26 02:11 | 28.86493 | 110.81337 | 22952 ft | 468 kts | 124° |
| 2026-04-26 02:11 | 28.84731 | 110.84420 | 23320 ft | 472 kts | 124° |
| 2026-04-26 02:11 | 28.82929 | 110.87570 | 23687 ft | 476 kts | 124° |
| 2026-04-26 02:11 | 28.81115 | 110.90736 | 24044 ft | 478 kts | 124° |
| 2026-04-26 02:12 | 28.79287 | 110.93924 | 24399 ft | 481 kts | 124° |
| 2026-04-26 02:12 | 28.77451 | 110.97124 | 24752 ft | 484 kts | 124° |
| 2026-04-26 02:12 | 28.75606 | 111.00337 | 25093 ft | 486 kts | 124° |
| 2026-04-26 02:12 | 28.73749 | 111.03569 | 25426 ft | 489 kts | 124° |
| 2026-04-26 02:13 | 28.71883 | 111.06817 | 25753 ft | 491 kts | 124° |
| 2026-04-26 02:13 | 28.70003 | 111.10082 | 26073 ft | 493 kts | 124° |
| 2026-04-26 02:13 | 28.68119 | 111.13349 | 26380 ft | 495 kts | 124° |
| 2026-04-26 02:13 | 28.66219 | 111.16645 | 26670 ft | 498 kts | 124° |
| 2026-04-26 02:14 | 28.64322 | 111.19952 | 26945 ft | 501 kts | 124° |
| 2026-04-26 02:14 | 28.62425 | 111.23297 | 27240 ft | 504 kts | 123° |
| 2026-04-26 02:14 | 28.60535 | 111.26659 | 27531 ft | 506 kts | 123° |
| 2026-04-26 02:14 | 28.58638 | 111.30042 | 27842 ft | 508 kts | 123° |
| 2026-04-26 02:15 | 28.56739 | 111.33424 | 28251 ft | 507 kts | 123° |
| 2026-04-26 02:15 | 28.54839 | 111.36800 | 28678 ft | 506 kts | 123° |
| 2026-04-26 02:15 | 28.52933 | 111.40170 | 29101 ft | 506 kts | 123° |
| 2026-04-26 02:15 | 28.51028 | 111.43521 | 29518 ft | 505 kts | 123° |
| 2026-04-26 02:16 | 28.49118 | 111.46873 | 29950 ft | 504 kts | 123° |
| 2026-04-26 02:16 | 28.47237 | 111.50171 | 30314 ft | 504 kts | 123° |
| 2026-04-26 02:16 | 28.45305 | 111.53559 | 30625 ft | 505 kts | 123° |
| 2026-04-26 02:16 | 28.43401 | 111.56910 | 30880 ft | 506 kts | 123° |
| 2026-04-26 02:17 | 28.41488 | 111.60280 | 31043 ft | 508 kts | 123° |
| 2026-04-26 02:17 | 28.37675 | 111.66986 | 31086 ft | 509 kts | 123° |
| 2026-04-26 02:18 | 28.33824 | 111.73724 | 31086 ft | 508 kts | 123° |
| 2026-04-26 02:18 | 28.29968 | 111.80452 | 31081 ft | 509 kts | 123° |
| 2026-04-26 02:19 | 28.26113 | 111.87184 | 31088 ft | 509 kts | 123° |
| 2026-04-26 02:19 | 28.22254 | 111.93925 | 31101 ft | 509 kts | 123° |
| 2026-04-26 02:20 | 28.18387 | 112.00652 | 31097 ft | 509 kts | 123° |
| 2026-04-26 02:20 | 28.14504 | 112.07363 | 31100 ft | 509 kts | 123° |
| 2026-04-26 02:20 | 28.12390 | 112.10555 | 31100 ft | 506 kts | 137° |
| 2026-04-26 02:21 | 28.09586 | 112.12895 | 31092 ft | 499 kts | 157° |
| 2026-04-26 02:21 | 28.06327 | 112.14059 | 31095 ft | 488 kts | 177° |
| 2026-04-26 02:21 | 28.02992 | 112.13938 | 31084 ft | 474 kts | 198° |
| 2026-04-26 02:21 | 28.00001 | 112.12588 | 31078 ft | 458 kts | 218° |
| 2026-04-26 02:22 | 27.97520 | 112.10377 | 31064 ft | 453 kts | 224° |
| 2026-04-26 02:22 | 27.94815 | 112.08478 | 31071 ft | 467 kts | 206° |
| 2026-04-26 02:22 | 27.91703 | 112.07335 | 31079 ft | 472 kts | 201° |
| 2026-04-26 02:23 | 27.85415 | 112.05178 | 31088 ft | 473 kts | 201° |
| 2026-04-26 02:23 | 27.82387 | 112.03816 | 31093 ft | 465 kts | 214° |
| 2026-04-26 02:23 | 27.79629 | 112.01932 | 31093 ft | 463 kts | 216° |
| 2026-04-26 02:24 | 27.74149 | 111.98103 | 31098 ft | 463 kts | 216° |
| 2026-04-26 02:24 | 27.68665 | 111.94265 | 31092 ft | 464 kts | 216° |
| 2026-04-26 02:25 | 27.63210 | 111.90469 | 31097 ft | 464 kts | 216° |
| 2026-04-26 02:25 | 27.57718 | 111.86650 | 31101 ft | 464 kts | 216° |
| 2026-04-26 02:26 | 27.52232 | 111.82831 | 31107 ft | 464 kts | 216° |
| 2026-04-26 02:26 | 27.46741 | 111.79016 | 31091 ft | 464 kts | 216° |
| 2026-04-26 02:27 | 27.41251 | 111.75211 | 31095 ft | 463 kts | 215° |
| 2026-04-26 02:27 | 27.35764 | 111.71411 | 31102 ft | 463 kts | 215° |
| 2026-04-26 02:28 | 27.30283 | 111.67621 | 31100 ft | 463 kts | 215° |
| 2026-04-26 02:28 | 27.24791 | 111.63827 | 31113 ft | 463 kts | 215° |
| 2026-04-26 02:29 | 27.19304 | 111.60037 | 31101 ft | 463 kts | 215° |
| 2026-04-26 02:29 | 27.13793 | 111.56279 | 31107 ft | 464 kts | 214° |
| 2026-04-26 02:30 | 27.08214 | 111.52626 | 31109 ft | 465 kts | 214° |
| 2026-04-26 02:30 | 27.02619 | 111.48989 | 31114 ft | 464 kts | 214° |
| 2026-04-26 02:31 | 26.96676 | 111.46262 | 31114 ft | 475 kts | 191° |
| 2026-04-26 02:31 | 26.93356 | 111.46207 | 31104 ft | 482 kts | 175° |
| 2026-04-26 02:31 | 26.90069 | 111.47200 | 31102 ft | 488 kts | 158° |
| 2026-04-26 02:31 | 26.87147 | 111.49152 | 31103 ft | 492 kts | 142° |
| 2026-04-26 02:32 | 26.84768 | 111.51914 | 31099 ft | 495 kts | 129° |
| 2026-04-26 02:32 | 26.80575 | 111.57971 | 31100 ft | 496 kts | 128° |
| 2026-04-26 02:33 | 26.76355 | 111.64089 | 31112 ft | 497 kts | 128° |
| 2026-04-26 02:33 | 26.72118 | 111.70212 | 31119 ft | 498 kts | 128° |
| 2026-04-26 02:34 | 26.67869 | 111.76334 | 31117 ft | 499 kts | 128° |
| 2026-04-26 02:34 | 26.63615 | 111.82459 | 31116 ft | 499 kts | 128° |
| 2026-04-26 02:35 | 26.59347 | 111.88590 | 31104 ft | 500 kts | 129° |
| 2026-04-26 02:35 | 26.55074 | 111.94710 | 31114 ft | 500 kts | 129° |
| 2026-04-26 02:36 | 26.50787 | 112.00837 | 31114 ft | 500 kts | 129° |
| 2026-04-26 02:36 | 26.46509 | 112.06958 | 31116 ft | 500 kts | 129° |
| 2026-04-26 02:37 | 26.42226 | 112.13076 | 31125 ft | 500 kts | 129° |
| 2026-04-26 02:37 | 26.37942 | 112.19197 | 31120 ft | 501 kts | 129° |
| 2026-04-26 02:38 | 26.33646 | 112.25322 | 31124 ft | 502 kts | 129° |
| 2026-04-26 02:38 | 26.29336 | 112.31450 | 31124 ft | 502 kts | 129° |
| 2026-04-26 02:39 | 26.25023 | 112.37580 | 31117 ft | 503 kts | 129° |
| 2026-04-26 02:39 | 26.20705 | 112.43709 | 31124 ft | 503 kts | 129° |
| 2026-04-26 02:40 | 26.16379 | 112.49838 | 31131 ft | 504 kts | 129° |
| 2026-04-26 02:40 | 26.12045 | 112.55971 | 31133 ft | 504 kts | 129° |
| 2026-04-26 02:41 | 26.07708 | 112.62100 | 31136 ft | 504 kts | 129° |
| 2026-04-26 02:41 | 26.03370 | 112.68215 | 31134 ft | 504 kts | 129° |
| 2026-04-26 02:42 | 25.99036 | 112.74332 | 31132 ft | 503 kts | 129° |
| 2026-04-26 02:42 | 25.94697 | 112.80438 | 31132 ft | 504 kts | 129° |
| 2026-04-26 02:43 | 25.88180 | 112.89599 | 31122 ft | 504 kts | 129° |
| 2026-04-26 02:43 | 25.83855 | 112.95668 | 31114 ft | 504 kts | 129° |
| 2026-04-26 02:44 | 25.79005 | 113.01287 | 31078 ft | 500 kts | 145° |
| 2026-04-26 02:44 | 25.76085 | 113.03339 | 30834 ft | 495 kts | 155° |
| 2026-04-26 02:44 | 25.72967 | 113.04788 | 30495 ft | 490 kts | 165° |
| 2026-04-26 02:45 | 25.69672 | 113.05653 | 30150 ft | 485 kts | 175° |
| 2026-04-26 02:45 | 25.66326 | 113.05917 | 29753 ft | 480 kts | 184° |
| 2026-04-26 02:45 | 25.62986 | 113.05836 | 29349 ft | 481 kts | 185° |
| 2026-04-26 02:45 | 25.59638 | 113.05747 | 28949 ft | 481 kts | 185° |
| 2026-04-26 02:46 | 25.56290 | 113.05659 | 28552 ft | 482 kts | 185° |
| 2026-04-26 02:46 | 25.52931 | 113.05572 | 28157 ft | 482 kts | 185° |
| 2026-04-26 02:46 | 25.49574 | 113.05483 | 27778 ft | 483 kts | 184° |
| 2026-04-26 02:46 | 25.46215 | 113.05395 | 27404 ft | 484 kts | 184° |
| 2026-04-26 02:47 | 25.42848 | 113.05309 | 27031 ft | 484 kts | 184° |
| 2026-04-26 02:47 | 25.39480 | 113.05226 | 26660 ft | 485 kts | 184° |
| 2026-04-26 02:47 | 25.36101 | 113.05144 | 26296 ft | 485 kts | 184° |
| 2026-04-26 02:47 | 25.33865 | 113.05089 | 26062 ft | 486 kts | 184° |
| 2026-04-26 02:48 | 25.29346 | 113.04977 | 25586 ft | 486 kts | 184° |
| 2026-04-26 02:48 | 25.27101 | 113.04921 | 25346 ft | 486 kts | 184° |
| 2026-04-26 02:48 | 25.23718 | 113.04834 | 25000 ft | 487 kts | 184° |
| 2026-04-26 02:48 | 25.19185 | 113.04722 | 24546 ft | 487 kts | 184° |
| 2026-04-26 02:49 | 25.15800 | 113.04640 | 24205 ft | 488 kts | 184° |
| 2026-04-26 02:49 | 25.13554 | 113.04584 | 23985 ft | 488 kts | 184° |
| 2026-04-26 02:49 | 25.10156 | 113.04497 | 23655 ft | 488 kts | 184° |
| 2026-04-26 02:49 | 25.06756 | 113.04410 | 23266 ft | 488 kts | 184° |
| 2026-04-26 02:50 | 25.03375 | 113.04324 | 22874 ft | 485 kts | 184° |
| 2026-04-26 02:50 | 24.98927 | 113.04214 | 22360 ft | 481 kts | 184° |
| 2026-04-26 02:50 | 24.96671 | 113.04158 | 22103 ft | 479 kts | 184° |
| 2026-04-26 02:50 | 24.93355 | 113.04076 | 21727 ft | 475 kts | 184° |
| 2026-04-26 02:51 | 24.90060 | 113.03992 | 21356 ft | 472 kts | 184° |
| 2026-04-26 02:51 | 24.86791 | 113.03910 | 20993 ft | 469 kts | 184° |
| 2026-04-26 02:51 | 24.83539 | 113.03831 | 20628 ft | 466 kts | 184° |
| 2026-04-26 02:51 | 24.80309 | 113.03753 | 20270 ft | 462 kts | 183° |
| 2026-04-26 02:52 | 24.77101 | 113.03673 | 19923 ft | 459 kts | 183° |
| 2026-04-26 02:52 | 24.73924 | 113.03590 | 19750 ft | 457 kts | 183° |
| 2026-04-26 02:52 | 24.70744 | 113.03506 | 19781 ft | 457 kts | 183° |
| 2026-04-26 02:52 | 24.67569 | 113.03424 | 19786 ft | 457 kts | 183° |
| 2026-04-26 02:53 | 24.64386 | 113.03346 | 19781 ft | 457 kts | 183° |
| 2026-04-26 02:53 | 24.61206 | 113.03268 | 19778 ft | 457 kts | 183° |
| 2026-04-26 02:53 | 24.58030 | 113.03189 | 19778 ft | 457 kts | 183° |
| 2026-04-26 02:53 | 24.54898 | 113.03108 | 19780 ft | 457 kts | 183° |
| 2026-04-26 02:54 | 24.51717 | 113.03023 | 19784 ft | 457 kts | 183° |
| 2026-04-26 02:54 | 24.48543 | 113.02954 | 19783 ft | 457 kts | 181° |
| 2026-04-26 02:54 | 24.45364 | 113.03217 | 19776 ft | 459 kts | 173° |
| 2026-04-26 02:54 | 24.42235 | 113.03952 | 19787 ft | 461 kts | 167° |
| 2026-04-26 02:55 | 24.39134 | 113.04811 | 19781 ft | 461 kts | 167° |
| 2026-04-26 02:55 | 24.36019 | 113.05661 | 19781 ft | 461 kts | 168° |
| 2026-04-26 02:55 | 24.32910 | 113.06504 | 19782 ft | 461 kts | 168° |
| 2026-04-26 02:55 | 24.29796 | 113.07343 | 19756 ft | 461 kts | 168° |
| 2026-04-26 02:56 | 24.26687 | 113.08177 | 19530 ft | 459 kts | 168° |
| 2026-04-26 02:56 | 24.23593 | 113.09005 | 19300 ft | 457 kts | 168° |
| 2026-04-26 02:56 | 24.20515 | 113.09836 | 19071 ft | 454 kts | 167° |
| 2026-04-26 02:56 | 24.17453 | 113.10665 | 18792 ft | 452 kts | 167° |
| 2026-04-26 02:57 | 24.14405 | 113.11490 | 18459 ft | 450 kts | 167° |
| 2026-04-26 02:57 | 24.11372 | 113.12311 | 18085 ft | 448 kts | 167° |
| 2026-04-26 02:57 | 24.08349 | 113.13130 | 17778 ft | 446 kts | 167° |
| 2026-04-26 02:57 | 24.05347 | 113.13945 | 17771 ft | 445 kts | 167° |
| 2026-04-26 02:58 | 24.02339 | 113.14758 | 17768 ft | 446 kts | 167° |
| 2026-04-26 02:58 | 23.99325 | 113.15565 | 17775 ft | 446 kts | 167° |
| 2026-04-26 02:58 | 23.96307 | 113.16365 | 17780 ft | 446 kts | 167° |
| 2026-04-26 02:58 | 23.93292 | 113.17160 | 17783 ft | 446 kts | 167° |
| 2026-04-26 02:59 | 23.90280 | 113.17953 | 17780 ft | 446 kts | 167° |
| 2026-04-26 02:59 | 23.87266 | 113.18749 | 17785 ft | 446 kts | 167° |
| 2026-04-26 02:59 | 23.84250 | 113.19548 | 17781 ft | 446 kts | 167° |
| 2026-04-26 02:59 | 23.81275 | 113.20338 | 17724 ft | 446 kts | 167° |
| 2026-04-26 03:00 | 23.78270 | 113.21136 | 17354 ft | 444 kts | 167° |
| 2026-04-26 03:00 | 23.75280 | 113.21930 | 16977 ft | 442 kts | 167° |
| 2026-04-26 03:00 | 23.72317 | 113.22717 | 16605 ft | 439 kts | 167° |
| 2026-04-26 03:00 | 23.69317 | 113.23395 | 16234 ft | 436 kts | 173° |
| 2026-04-26 03:01 | 23.66300 | 113.23632 | 15878 ft | 433 kts | 181° |
| 2026-04-26 03:01 | 23.63308 | 113.23416 | 15564 ft | 430 kts | 189° |
| 2026-04-26 03:01 | 23.60333 | 113.22832 | 15200 ft | 428 kts | 192° |
| 2026-04-26 03:01 | 23.57455 | 113.22236 | 14852 ft | 426 kts | 192° |
| 2026-04-26 03:02 | 23.54549 | 113.21640 | 14503 ft | 424 kts | 192° |
| 2026-04-26 03:02 | 23.51661 | 113.21047 | 14159 ft | 422 kts | 192° |
| 2026-04-26 03:02 | 23.48792 | 113.20457 | 13812 ft | 420 kts | 192° |
| 2026-04-26 03:02 | 23.45930 | 113.19860 | 13426 ft | 418 kts | 192° |
| 2026-04-26 03:03 | 23.43078 | 113.19260 | 13046 ft | 416 kts | 192° |
| 2026-04-26 03:03 | 23.40246 | 113.18660 | 12648 ft | 413 kts | 192° |
| 2026-04-26 03:03 | 23.37453 | 113.18069 | 12261 ft | 402 kts | 192° |
| 2026-04-26 03:03 | 23.34747 | 113.17497 | 11872 ft | 391 kts | 192° |
| 2026-04-26 03:04 | 23.32141 | 113.16945 | 11482 ft | 370 kts | 192° |
| 2026-04-26 03:04 | 23.29706 | 113.16431 | 11179 ft | 344 kts | 192° |
| 2026-04-26 03:04 | 23.27431 | 113.15953 | 10890 ft | 322 kts | 192° |
| 2026-04-26 03:04 | 23.25297 | 113.15506 | 10611 ft | 304 kts | 192° |
| 2026-04-26 03:05 | 23.23274 | 113.15084 | 10345 ft | 288 kts | 192° |
| 2026-04-26 03:05 | 23.21347 | 113.14681 | 10057 ft | 277 kts | 192° |
| 2026-04-26 03:05 | 23.19477 | 113.14283 | 9775 ft | 268 kts | 193° |
| 2026-04-26 03:05 | 23.17700 | 113.13842 | 9468 ft | 256 kts | 195° |
| 2026-04-26 03:06 | 23.16008 | 113.13383 | 9168 ft | 245 kts | 195° |
| 2026-04-26 03:06 | 23.14382 | 113.12930 | 8859 ft | 238 kts | 195° |
| 2026-04-26 03:06 | 23.12772 | 113.12482 | 8570 ft | 238 kts | 195° |
| 2026-04-26 03:06 | 23.11172 | 113.12040 | 8277 ft | 236 kts | 195° |
| 2026-04-26 03:07 | 23.09583 | 113.11606 | 7975 ft | 234 kts | 195° |
| 2026-04-26 03:07 | 23.08010 | 113.11178 | 7693 ft | 233 kts | 194° |
| 2026-04-26 03:07 | 23.06441 | 113.10756 | 7411 ft | 231 kts | 194° |
| 2026-04-26 03:07 | 23.04885 | 113.10339 | 7117 ft | 230 kts | 194° |
| 2026-04-26 03:08 | 23.03338 | 113.09926 | 6833 ft | 228 kts | 193° |
| 2026-04-26 03:08 | 23.01799 | 113.09516 | 6579 ft | 227 kts | 193° |
| 2026-04-26 03:08 | 23.00272 | 113.09110 | 6334 ft | 225 kts | 193° |
| 2026-04-26 03:08 | 22.98758 | 113.08707 | 6090 ft | 224 kts | 193° |
| 2026-04-26 03:09 | 22.97233 | 113.08554 | 5904 ft | 220 kts | 169° |
| 2026-04-26 03:09 | 22.95841 | 113.09223 | 5783 ft | 222 kts | 140° |
| 2026-04-26 03:09 | 22.94957 | 113.10576 | 5658 ft | 223 kts | 109° |
| 2026-04-26 03:09 | 22.94561 | 113.12211 | 5535 ft | 225 kts | 104° |
| 2026-04-26 03:10 | 22.94187 | 113.13860 | 5410 ft | 225 kts | 105° |
| 2026-04-26 03:10 | 22.93813 | 113.15502 | 5288 ft | 224 kts | 104° |
| 2026-04-26 03:10 | 22.93644 | 113.17170 | 5167 ft | 225 kts | 81° |
| 2026-04-26 03:10 | 22.94282 | 113.18696 | 5048 ft | 226 kts | 49° |
| 2026-04-26 03:11 | 22.95577 | 113.19626 | 4924 ft | 227 kts | 15° |
| 2026-04-26 03:11 | 22.97134 | 113.19977 | 4800 ft | 229 kts | 12° |
| 2026-04-26 03:11 | 22.98691 | 113.20376 | 4680 ft | 228 kts | 14° |
| 2026-04-26 03:11 | 23.00223 | 113.20805 | 4547 ft | 228 kts | 15° |
| 2026-04-26 03:12 | 23.01732 | 113.21259 | 4428 ft | 227 kts | 15° |
| 2026-04-26 03:12 | 23.03281 | 113.21699 | 4287 ft | 227 kts | 14° |
| 2026-04-26 03:12 | 23.04793 | 113.22108 | 4178 ft | 226 kts | 14° |
| 2026-04-26 03:12 | 23.06321 | 113.22519 | 4060 ft | 227 kts | 14° |
| 2026-04-26 03:13 | 23.07852 | 113.22930 | 3924 ft | 226 kts | 14° |
| 2026-04-26 03:13 | 23.09377 | 113.23340 | 3808 ft | 225 kts | 14° |
| 2026-04-26 03:13 | 23.10897 | 113.23749 | 3684 ft | 224 kts | 14° |
| 2026-04-26 03:13 | 23.12414 | 113.24157 | 3559 ft | 219 kts | 14° |
| 2026-04-26 03:14 | 23.13897 | 113.24556 | 3434 ft | 219 kts | 14° |
| 2026-04-26 03:14 | 23.15355 | 113.24948 | 3312 ft | 219 kts | 14° |
| 2026-04-26 03:14 | 23.16823 | 113.25343 | 3184 ft | 211 kts | 15° |
| 2026-04-26 03:14 | 23.18212 | 113.25717 | 3060 ft | 203 kts | 14° |
| 2026-04-26 03:15 | 23.19562 | 113.26080 | 2933 ft | 197 kts | 15° |
| 2026-04-26 03:15 | 23.20886 | 113.26437 | 2782 ft | 193 kts | 14° |
| 2026-04-26 03:15 | 23.22184 | 113.26787 | 2735 ft | 193 kts | 15° |
| 2026-04-26 03:15 | 23.23492 | 113.27139 | 2643 ft | 194 kts | 15° |
| 2026-04-26 03:16 | 23.24801 | 113.27492 | 2438 ft | 195 kts | 14° |
| 2026-04-26 03:16 | 23.26130 | 113.27850 | 2206 ft | 196 kts | 15° |
| 2026-04-26 03:16 | 23.27407 | 113.28194 | 1949 ft | 181 kts | 15° |
| 2026-04-26 03:16 | 23.28551 | 113.28502 | 1735 ft | 161 kts | 15° |
| 2026-04-26 03:17 | 23.29604 | 113.28786 | 1502 ft | 150 kts | 15° |
| 2026-04-26 03:17 | 23.30592 | 113.29053 | 1322 ft | 144 kts | 15° |
| 2026-04-26 03:17 | 23.31555 | 113.29313 | 1126 ft | 142 kts | 15° |
| 2026-04-26 03:17 | 23.32507 | 113.29570 | 964 ft | 141 kts | 15° |
| 2026-04-26 03:18 | 23.33449 | 113.29824 | 783 ft | 139 kts | 15° |
| 2026-04-26 03:18 | 23.34383 | 113.30077 | 609 ft | 138 kts | 15° |
| 2026-04-26 03:18 | 23.35308 | 113.30326 | 421 ft | 136 kts | 15° |
| 2026-04-26 03:18 | 23.36223 | 113.30573 | 249 ft | 136 kts | 15° |
| 2026-04-26 03:19 | 23.37134 | 113.30827 | 96 ft | 135 kts | 15° |
| 2026-04-26 03:19 | 23.37997 | 113.31059 | 56 ft | 115 kts | 13° |
| 2026-04-26 03:19 | 23.38612 | 113.31218 | 51 ft | 61 kts | 13° |
| 2026-04-26 03:19 | 23.38887 | 113.31291 | 52 ft | 34 kts | 13° |
| 2026-04-26 03:20 | 23.39096 | 113.31279 | 54 ft | 24 kts | 349° |
| 2026-04-26 03:20 | 23.39237 | 113.31242 | 53 ft | 21 kts | 344° |
| 2026-04-26 03:20 | 23.39358 | 113.31223 | 54 ft | 12 kts | 5° |
| 2026-04-26 03:20 | 23.39434 | 113.31237 | 55 ft | 10 kts | 12° |
| 2026-04-26 03:21 | 23.39499 | 113.31254 | 56 ft | 10 kts | 16° |
| 2026-04-26 03:21 | 23.39573 | 113.31277 | 53 ft | 13 kts | 14° |
| 2026-04-26 03:21 | 23.39682 | 113.31306 | 53 ft | 19 kts | 14° |
| 2026-04-26 03:21 | 23.39812 | 113.31342 | 52 ft | 21 kts | 14° |
| 2026-04-26 03:22 | 23.39968 | 113.31384 | 53 ft | 26 kts | 14° |
| 2026-04-26 03:22 | 23.40141 | 113.31431 | 54 ft | 27 kts | 13° |
| 2026-04-26 03:22 | 23.40268 | 113.31465 | 57 ft | 12 kts | 14° |
| 2026-04-26 03:22 | 23.40327 | 113.31414 | 54 ft | 7 kts | 283° |
| 2026-04-26 03:23 | 23.40327 | 113.31412 | 54 ft | 0 kts | 283° |
| 2026-04-26 03:23 | 23.40327 | 113.31411 | 54 ft | 1 kts | 283° |
| 2026-04-26 03:23 | 23.40334 | 113.31383 | 52 ft | 7 kts | 284° |
| 2026-04-26 03:23 | 23.40357 | 113.31298 | 55 ft | 17 kts | 285° |
| 2026-04-26 03:24 | 23.40384 | 113.31179 | 58 ft | 13 kts | 283° |
| 2026-04-26 03:24 | 23.40389 | 113.31158 | 58 ft | 0 kts | 283° |
| 2026-04-26 03:25 | 23.40390 | 113.31155 | 58 ft | 2 kts | 283° |
| 2026-04-26 03:26 | 23.40394 | 113.31135 | 55 ft | 2 kts | 283° |
| 2026-04-26 03:26 | 23.40400 | 113.31108 | 57 ft | 3 kts | 284° |
| 2026-04-26 03:26 | 23.40410 | 113.31066 | 56 ft | 9 kts | 284° |
| 2026-04-26 03:26 | 23.40432 | 113.30974 | 55 ft | 15 kts | 284° |
| 2026-04-26 03:27 | 23.40390 | 113.30895 | 52 ft | 15 kts | 201° |
| 2026-04-26 03:27 | 23.40362 | 113.30885 | 57 ft | 5 kts | 196° |
| 2026-04-26 03:27 | 23.40309 | 113.30870 | 55 ft | 11 kts | 193° |
| 2026-04-26 03:27 | 23.40236 | 113.30822 | 56 ft | 14 kts | 265° |
| 2026-04-26 03:28 | 23.40246 | 113.30733 | 52 ft | 8 kts | 281° |
| 2026-04-26 03:28 | 23.40220 | 113.30695 | 57 ft | 6 kts | 214° |
| 2026-04-26 03:28 | 23.40204 | 113.30682 | 58 ft | 0 kts | 217° |
| 2026-04-26 03:28 | 23.40203 | 113.30681 | 58 ft | 1 kts | 218° |
| 2026-04-26 03:29 | 23.40200 | 113.30678 | 56 ft | 0 kts | 218° |